createdAt,value
2023-03-10T00:00:40.989Z,9.10
2023-03-10T00:03:43.510Z,9.14
2023-03-10T00:06:45.750Z,9.16
2023-03-10T00:09:48.004Z,9.27
2023-03-10T00:12:50.267Z,9.17
2023-03-10T00:15:52.519Z,9.16
2023-03-10T00:18:54.996Z,9.18
2023-03-10T00:21:57.324Z,9.16
2023-03-10T00:24:59.652Z,9.03
2023-03-10T00:28:01.880Z,9.03
2023-03-10T00:31:14.074Z,8.97
2023-03-10T00:34:16.443Z,8.90
2023-03-10T00:37:18.995Z,8.86
2023-03-10T00:40:21.343Z,8.77
2023-03-10T00:43:23.644Z,8.75
2023-03-10T00:46:27.054Z,8.67
2023-03-10T00:49:29.442Z,8.66
2023-03-10T00:52:33.392Z,8.63
2023-03-10T00:55:35.614Z,8.63
2023-03-10T00:58:38.111Z,8.56
2023-03-10T01:01:41.961Z,8.57
2023-03-10T01:04:44.349Z,8.60
2023-03-10T01:07:46.718Z,8.62
2023-03-10T01:10:50.080Z,8.53
2023-03-10T01:13:55.739Z,8.44
2023-03-10T01:16:59.530Z,8.22
2023-03-10T01:20:01.972Z,8.22
2023-03-10T01:23:04.498Z,8.11
2023-03-10T01:26:06.754Z,8.01
2023-03-10T01:29:09.291Z,8.01
2023-03-10T01:32:11.634Z,7.83
2023-03-10T01:35:13.854Z,7.85
2023-03-10T01:38:16.115Z,7.73
2023-03-10T01:41:18.956Z,7.80
2023-03-10T01:44:21.589Z,7.93
2023-03-10T01:47:25.388Z,7.80
2023-03-10T01:50:28.124Z,7.66
2023-03-10T01:53:31.189Z,7.56
2023-03-10T01:56:35.232Z,7.62
2023-03-10T01:59:37.577Z,7.62
2023-03-10T02:03:00.325Z,7.66
2023-03-10T02:06:10.670Z,7.74
2023-03-10T02:09:14.120Z,7.83
2023-03-10T02:12:16.830Z,7.88
2023-03-10T02:15:19.166Z,7.91
2023-03-10T02:18:22.336Z,7.88
2023-03-10T02:21:27.292Z,7.87
2023-03-10T02:24:56.165Z,7.69
2023-03-10T02:27:59.863Z,7.47
2023-03-10T02:31:02.738Z,7.50
2023-03-10T02:34:06.843Z,7.54
2023-03-10T02:37:23.309Z,7.70
2023-03-10T02:40:37.742Z,7.62
2023-03-10T02:43:50.479Z,7.50
2023-03-10T02:47:00.630Z,7.49
2023-03-10T02:50:03.746Z,7.39
2023-03-10T02:53:16.599Z,7.32
2023-03-10T02:56:19.082Z,7.30
2023-03-10T02:59:22.445Z,7.26
2023-03-10T03:02:27.882Z,7.20
2023-03-10T03:05:30.222Z,7.22
2023-03-10T03:08:33.483Z,7.16
2023-03-10T03:11:37.960Z,7.22
2023-03-10T03:14:42.800Z,7.25
2023-03-10T03:17:45.107Z,7.25
2023-03-10T03:20:49.505Z,7.09
2023-03-10T03:23:51.846Z,6.94
2023-03-10T03:26:56.840Z,6.89
2023-03-10T03:30:02.053Z,6.89
2023-03-10T03:33:06.936Z,6.94
2023-03-10T03:36:10.759Z,6.89
2023-03-10T03:39:17.357Z,6.94
2023-03-10T03:42:22.793Z,7.06
2023-03-10T03:45:30.490Z,7.05
2023-03-10T03:48:34.905Z,7.15
2023-03-10T03:51:40.108Z,7.26
2023-03-10T03:54:42.876Z,7.23
2023-03-10T03:57:45.575Z,7.20
2023-03-10T04:00:49.748Z,7.27
2023-03-10T04:03:53.641Z,7.25
2023-03-10T04:06:56.437Z,7.32
2023-03-10T04:09:59.190Z,7.44
2023-03-10T04:13:01.618Z,7.43
2023-03-10T04:16:05.354Z,7.43
2023-03-10T04:19:10.831Z,7.46
2023-03-10T04:22:17.065Z,7.53
2023-03-10T04:25:21.407Z,7.46
2023-03-10T04:28:24.571Z,7.44
2023-03-10T04:31:27.386Z,7.39
2023-03-10T04:34:30.340Z,7.44
2023-03-10T04:37:33.303Z,7.26
2023-03-10T04:40:36.365Z,7.18
2023-03-10T04:43:42.003Z,7.20
2023-03-10T04:46:45.255Z,7.37
2023-03-10T04:49:47.554Z,7.56
2023-03-10T04:52:50.275Z,7.57
2023-03-10T04:55:55.623Z,7.64
2023-03-10T04:58:58.595Z,7.43
2023-03-10T05:02:01.564Z,7.39
2023-03-10T05:05:04.506Z,7.39
2023-03-10T05:08:07.559Z,7.30
2023-03-10T05:11:10.113Z,7.29
2023-03-10T05:14:13.283Z,7.35
2023-03-10T05:17:15.783Z,7.44
2023-03-10T05:20:19.357Z,7.57
2023-03-10T05:23:21.998Z,7.73
2023-03-10T05:26:24.620Z,7.73
2023-03-10T05:29:27.095Z,7.85
2023-03-10T05:32:36.203Z,7.91
2023-03-10T05:35:39.068Z,8.02
2023-03-10T05:38:41.666Z,8.15
2023-03-10T05:41:47.879Z,8.21
2023-03-10T05:44:50.650Z,8.26
2023-03-10T05:47:53.133Z,8.42
2023-03-10T05:51:00.116Z,8.48
2023-03-10T05:54:02.985Z,8.52
2023-03-10T05:57:06.958Z,8.55
2023-03-10T06:00:11.386Z,8.55
2023-03-10T06:03:19.935Z,8.75
2023-03-10T06:06:22.210Z,8.75
2023-03-10T06:09:25.663Z,8.87
2023-03-10T06:12:27.858Z,8.86
2023-03-10T06:15:30.501Z,8.97
2023-03-10T06:18:35.639Z,9.17
2023-03-10T06:21:38.023Z,9.20
2023-03-10T06:24:40.255Z,9.28
2023-03-10T06:27:42.504Z,9.21
2023-03-10T06:30:54.901Z,9.23
2023-03-10T06:33:57.841Z,9.23
2023-03-10T06:37:00.149Z,9.28
2023-03-10T06:40:02.743Z,9.27
2023-03-10T06:43:07.907Z,9.39
2023-03-10T06:46:11.433Z,9.67
2023-03-10T06:49:16.524Z,9.81
2023-03-10T06:52:20.926Z,9.98
2023-03-10T06:55:26.376Z,10.06
2023-03-10T06:58:29.826Z,10.02
2023-03-10T07:01:33.753Z,10.10
2023-03-10T07:04:36.144Z,10.21
2023-03-10T07:07:38.884Z,10.20
2023-03-10T07:10:41.211Z,10.36
2023-03-10T07:13:45.949Z,10.44
2023-03-10T07:16:48.373Z,10.59
2023-03-10T07:19:51.029Z,10.82
2023-03-10T07:22:57.733Z,10.94
2023-03-10T07:26:00.600Z,11.16
2023-03-10T07:29:03.116Z,11.36
2023-03-10T07:32:05.493Z,11.12
2023-03-10T07:35:13.411Z,11.09
2023-03-10T07:38:16.027Z,11.21
2023-03-10T07:41:20.620Z,11.21
2023-03-10T07:44:22.891Z,11.31
2023-03-10T07:47:25.616Z,11.44
2023-03-10T07:50:27.915Z,11.65
2023-03-10T07:53:30.804Z,11.90
2023-03-10T07:56:33.179Z,12.01
2023-03-10T07:59:38.035Z,12.23
2023-03-10T08:02:40.930Z,12.49
2023-03-10T08:05:43.600Z,12.66
2023-03-10T08:08:46.398Z,12.93
2023-03-10T08:11:50.205Z,13.12
2023-03-10T08:14:52.587Z,13.07
2023-03-10T08:17:54.973Z,13.37
2023-03-10T08:20:58.525Z,13.23
2023-03-10T08:24:00.976Z,12.92
2023-03-10T08:27:10.057Z,13.19
2023-03-10T08:30:12.885Z,13.20
2023-03-10T08:33:15.349Z,13.32
2023-03-10T08:36:21.718Z,13.22
2023-03-10T08:39:25.988Z,13.43
2023-03-10T08:42:29.841Z,13.34
2023-03-10T08:45:32.266Z,13.10
2023-03-10T08:48:34.636Z,12.73
2023-03-10T08:51:37.622Z,12.76
2023-03-10T08:54:42.977Z,12.51
2023-03-10T08:57:45.502Z,12.54
2023-03-10T09:00:49.146Z,12.59
2023-03-10T09:03:51.449Z,12.49
2023-03-10T09:07:00.700Z,12.44
2023-03-10T09:10:11.032Z,12.65
2023-03-10T09:13:14.518Z,12.44
2023-03-10T09:16:18.031Z,12.64
2023-03-10T09:19:20.570Z,12.68
2023-03-10T09:22:24.706Z,12.91
2023-03-10T09:25:33.258Z,13.32
2023-03-10T09:28:35.745Z,13.78
2023-03-10T09:31:46.802Z,13.81
2023-03-10T09:34:49.040Z,14.19
2023-03-10T09:37:58.331Z,14.22
2023-03-10T09:41:41.624Z,14.50
2023-03-10T09:45:10.974Z,14.22
2023-03-10T09:48:20.538Z,14.50
2023-03-10T09:51:28.639Z,14.35
2023-03-10T09:54:48.918Z,14.40
2023-03-10T09:57:54.582Z,14.16
2023-03-10T10:01:00.493Z,14.45
2023-03-10T10:04:09.251Z,14.96
2023-03-10T10:07:17.762Z,14.67
2023-03-10T10:10:26.798Z,14.53
2023-03-10T10:13:32.627Z,14.43
2023-03-10T10:16:50.573Z,14.96
2023-03-10T10:19:53.487Z,15.06
2023-03-10T10:22:55.744Z,15.28
2023-03-10T10:26:12.983Z,15.34
2023-03-10T10:29:47.894Z,15.41
2023-03-10T10:33:03.880Z,15.45
2023-03-10T10:36:06.727Z,15.68
2023-03-10T10:39:32.583Z,15.51
2023-03-10T10:42:37.837Z,15.66
2023-03-10T10:45:44.039Z,16.37
2023-03-10T10:48:49.153Z,15.82
2023-03-10T10:52:07.349Z,17.14
2023-03-10T10:55:26.374Z,16.95
2023-03-10T10:58:38.127Z,17.05
2023-03-10T11:02:21.384Z,17.09
2023-03-10T11:05:38.953Z,17.16
2023-03-10T11:08:43.197Z,20.05
2023-03-10T11:12:26.658Z,21.59
2023-03-10T11:15:39.406Z,19.98
2023-03-10T11:18:55.678Z,21.07
2023-03-10T11:22:23.920Z,20.90
2023-03-10T11:25:55.934Z,18.48
2023-03-10T11:29:19.112Z,18.41
2023-03-10T11:32:34.985Z,17.63
2023-03-10T11:35:46.066Z,20.49
2023-03-10T11:38:54.130Z,19.22
2023-03-10T11:42:07.937Z,18.71
2023-03-10T11:45:25.054Z,20.04
2023-03-10T11:48:42.756Z,17.74
2023-03-10T11:51:57.534Z,17.15
2023-03-10T11:55:19.392Z,16.65
2023-03-10T11:58:41.541Z,16.38
2023-03-10T12:02:00.919Z,16.20
2023-03-10T12:05:24.555Z,16.29
2023-03-10T12:08:33.191Z,16.74
2023-03-10T12:11:36.245Z,17.20
2023-03-10T12:14:39.859Z,17.22
2023-03-10T12:17:43.255Z,17.38
2023-03-10T12:20:45.574Z,19.78
2023-03-10T12:23:53.556Z,21.30
2023-03-10T12:27:01.763Z,20.79
2023-03-10T12:30:42.398Z,18.96
2023-03-10T12:33:46.655Z,20.40
2023-03-10T12:36:55.103Z,19.20
2023-03-10T12:40:01.332Z,19.99
2023-03-10T12:43:38.694Z,18.93
2023-03-10T12:47:09.448Z,19.47
2023-03-10T12:50:19.629Z,19.67
2023-03-10T12:53:24.502Z,18.86
2023-03-10T12:56:39.939Z,17.67
2023-03-10T13:00:00.126Z,17.23
2023-03-10T13:03:11.094Z,16.85
2023-03-10T13:06:13.362Z,16.72
2023-03-10T13:09:43.659Z,17.30
2023-03-10T13:12:51.574Z,17.08
2023-03-10T13:16:06.106Z,16.50
2023-03-10T13:19:20.329Z,16.05
2023-03-10T13:22:22.574Z,16.27
2023-03-10T13:25:26.448Z,16.12
2023-03-10T13:28:34.609Z,16.33
2023-03-10T13:31:36.968Z,16.71
2023-03-10T13:34:39.164Z,16.87
2023-03-10T13:37:41.565Z,18.21
2023-03-10T13:40:49.372Z,19.22
2023-03-10T13:43:53.911Z,18.63
2023-03-10T13:47:00.597Z,18.88
2023-03-10T13:50:03.362Z,19.60
2023-03-10T13:53:05.581Z,19.63
2023-03-10T13:56:21.366Z,20.53
2023-03-10T13:59:27.750Z,22.81
2023-03-10T14:02:33.476Z,22.60
2023-03-10T14:05:41.579Z,21.01
2023-03-10T14:08:43.850Z,19.65
2023-03-10T14:11:47.999Z,18.28
2023-03-10T14:14:52.012Z,17.43
2023-03-10T14:18:09.263Z,17.15
2023-03-10T14:21:32.930Z,18.45
2023-03-10T14:24:35.134Z,19.63
2023-03-10T14:27:41.722Z,20.35
2023-03-10T14:30:44.574Z,20.21
2023-03-10T14:33:47.438Z,18.51
2023-03-10T14:36:49.650Z,18.59
2023-03-10T14:39:51.926Z,19.64
2023-03-10T14:42:57.767Z,18.73
2023-03-10T14:46:01.668Z,17.98
2023-03-10T14:49:07.546Z,17.93
2023-03-10T14:52:18.830Z,17.49
2023-03-10T14:55:21.588Z,16.87
2023-03-10T14:58:27.569Z,16.37
2023-03-10T15:01:30.795Z,15.82
2023-03-10T15:04:33.344Z,15.48
2023-03-10T15:07:35.600Z,15.27
2023-03-10T15:10:40.763Z,15.27
2023-03-10T15:13:43.091Z,15.03
2023-03-10T15:16:45.701Z,14.97
2023-03-10T15:19:47.944Z,14.76
2023-03-10T15:22:51.565Z,14.73
2023-03-10T15:25:55.373Z,14.79
2023-03-10T15:28:57.651Z,14.67
2023-03-10T15:32:01.627Z,14.62
2023-03-10T15:35:04.661Z,14.56
2023-03-10T15:38:06.935Z,14.55
2023-03-10T15:41:09.596Z,14.45
2023-03-10T15:44:12.406Z,14.37
2023-03-10T15:47:14.672Z,14.26
2023-03-10T15:50:20.951Z,14.16
2023-03-10T15:53:23.277Z,14.25
2023-03-10T15:56:26.078Z,14.21
2023-03-10T15:59:28.515Z,14.01
2023-03-10T16:02:30.689Z,14.06
2023-03-10T16:05:34.439Z,14.14
2023-03-10T16:08:40.259Z,14.08
2023-03-10T16:11:42.632Z,14.12
2023-03-10T16:14:44.839Z,14.04
2023-03-10T16:17:47.094Z,14.00
2023-03-10T16:21:00.080Z,14.00
2023-03-10T16:24:02.436Z,13.94
2023-03-10T16:27:04.701Z,13.91
2023-03-10T16:30:12.147Z,13.79
2023-03-10T16:33:16.853Z,13.61
2023-03-10T16:36:25.731Z,13.42
2023-03-10T16:39:31.057Z,13.48
2023-03-10T16:42:36.313Z,13.55
2023-03-10T16:45:39.430Z,13.34
2023-03-10T16:48:44.046Z,13.39
2023-03-10T16:51:47.561Z,13.28
2023-03-10T16:54:49.881Z,13.16
2023-03-10T16:57:52.185Z,13.10
2023-03-10T17:00:54.444Z,13.02
2023-03-10T17:03:57.424Z,12.97
2023-03-10T17:06:59.897Z,12.85
2023-03-10T17:10:02.202Z,12.82
2023-03-10T17:13:04.512Z,12.88
2023-03-10T17:16:12.586Z,13.03
2023-03-10T17:19:20.381Z,13.02
2023-03-10T17:22:22.577Z,13.02
2023-03-10T17:25:24.864Z,13.03
2023-03-10T17:28:27.057Z,12.97
2023-03-10T17:31:30.271Z,12.97
2023-03-10T17:34:32.493Z,12.93
2023-03-10T17:37:34.729Z,12.88
2023-03-10T17:40:40.439Z,12.88
2023-03-10T17:43:43.104Z,12.81
2023-03-10T17:46:45.722Z,12.71
2023-03-10T17:49:48.060Z,12.65
2023-03-10T17:52:50.357Z,12.62
2023-03-10T17:55:53.072Z,12.54
2023-03-10T17:58:56.476Z,12.55
2023-03-10T18:01:58.957Z,12.54
2023-03-10T18:05:01.194Z,12.46
2023-03-10T18:08:03.576Z,12.41
2023-03-10T18:11:06.076Z,12.40
2023-03-10T18:14:08.352Z,12.34
2023-03-10T18:17:10.591Z,12.32
2023-03-10T18:20:14.501Z,12.24
2023-03-10T18:23:22.034Z,12.30
2023-03-10T18:26:27.775Z,12.25
2023-03-10T18:29:29.999Z,12.28
2023-03-10T18:32:34.243Z,12.25
2023-03-10T18:35:41.053Z,12.25
2023-03-10T18:38:44.815Z,12.20
2023-03-10T18:41:47.050Z,12.27
2023-03-10T18:44:49.316Z,12.27
2023-03-10T18:47:51.548Z,12.14
2023-03-10T18:50:55.178Z,12.21
2023-03-10T18:53:57.389Z,12.00
2023-03-10T18:57:01.737Z,11.87
2023-03-10T19:00:10.110Z,11.76
2023-03-10T19:03:13.745Z,11.43
2023-03-10T19:06:16.041Z,11.43
2023-03-10T19:09:20.386Z,11.49
2023-03-10T19:12:24.876Z,11.40
2023-03-10T19:15:27.183Z,11.55
2023-03-10T19:18:29.353Z,11.50
2023-03-10T19:21:34.334Z,11.58
2023-03-10T19:24:36.548Z,11.66
2023-03-10T19:27:40.524Z,11.62
2023-03-10T19:30:43.585Z,11.56
2023-03-10T19:33:45.865Z,11.59
2023-03-10T19:36:48.183Z,11.50
2023-03-10T19:39:50.502Z,11.43
2023-03-10T19:42:53.132Z,11.46
2023-03-10T19:46:03.122Z,11.44
2023-03-10T19:49:06.732Z,11.28
2023-03-10T19:52:09.069Z,11.40
2023-03-10T19:55:23.379Z,11.38
2023-03-10T19:58:26.326Z,11.32
2023-03-10T20:01:29.344Z,11.29
2023-03-10T20:04:34.646Z,11.26
2023-03-10T20:07:36.871Z,11.19
2023-03-10T20:10:39.282Z,11.02
2023-03-10T20:13:43.195Z,10.98
2023-03-10T20:16:45.573Z,10.85
2023-03-10T20:19:54.208Z,10.75
2023-03-10T20:22:56.564Z,10.78
2023-03-10T20:26:07.098Z,10.63
2023-03-10T20:29:09.496Z,10.53
2023-03-10T20:32:11.785Z,10.54
2023-03-10T20:35:15.218Z,10.57
2023-03-10T20:38:17.798Z,10.56
2023-03-10T20:41:20.655Z,10.54
2023-03-10T20:44:22.834Z,10.63
2023-03-10T20:47:25.361Z,10.68
2023-03-10T20:50:27.677Z,10.67
2023-03-10T20:53:36.163Z,10.56
2023-03-10T20:56:38.369Z,10.51
2023-03-10T20:59:40.623Z,10.44
2023-03-10T21:02:44.590Z,10.36
2023-03-10T21:05:47.088Z,10.36
2023-03-10T21:08:49.354Z,10.37
2023-03-10T21:11:51.679Z,10.23
2023-03-10T21:14:54.661Z,10.17
2023-03-10T21:17:57.008Z,10.26
2023-03-10T21:20:59.277Z,10.30
2023-03-10T21:24:03.926Z,10.28
2023-03-10T21:27:06.796Z,10.21
2023-03-10T21:30:13.482Z,10.13
2023-03-10T21:33:15.741Z,9.96
2023-03-10T21:36:23.377Z,9.96
2023-03-10T21:39:25.661Z,9.99
2023-03-10T21:42:28.094Z,10.09
2023-03-10T21:45:30.355Z,10.00
2023-03-10T21:48:32.702Z,10.12
2023-03-10T21:51:36.116Z,10.00
2023-03-10T21:54:38.685Z,10.10
2023-03-10T21:57:40.950Z,10.16
2023-03-10T22:00:43.219Z,10.16
2023-03-10T22:03:45.473Z,10.16
2023-03-10T22:06:47.952Z,10.17
2023-03-10T22:09:50.138Z,10.13
2023-03-10T22:12:52.511Z,9.99
2023-03-10T22:15:55.045Z,9.96
2023-03-10T22:18:57.358Z,9.90
2023-03-10T22:21:59.572Z,9.93
2023-03-10T22:25:01.894Z,9.85
2023-03-10T22:28:04.602Z,9.71
2023-03-10T22:31:08.427Z,9.81
2023-03-10T22:34:10.646Z,9.62
2023-03-10T22:37:13.564Z,9.72
2023-03-10T22:40:21.017Z,9.74
2023-03-10T22:43:23.287Z,9.77
2023-03-10T22:46:25.497Z,9.57
2023-03-10T22:49:27.771Z,9.67
2023-03-10T22:52:29.996Z,9.72
2023-03-10T22:55:35.675Z,9.67
2023-03-10T22:58:37.879Z,9.67
2023-03-10T23:01:40.286Z,9.68
2023-03-10T23:04:44.455Z,9.63
2023-03-10T23:07:47.087Z,9.45
2023-03-10T23:10:49.315Z,9.38
2023-03-10T23:13:51.721Z,9.39
2023-03-10T23:16:55.179Z,9.51
2023-03-10T23:19:59.038Z,9.54
2023-03-10T23:23:03.851Z,9.57
2023-03-10T23:26:06.131Z,9.44
2023-03-10T23:29:08.332Z,9.34
2023-03-10T23:32:11.160Z,9.27
2023-03-10T23:35:19.417Z,9.37
2023-03-10T23:38:23.389Z,9.34
2023-03-10T23:41:25.695Z,9.28
2023-03-10T23:44:28.029Z,9.31
2023-03-10T23:47:30.293Z,9.20
2023-03-10T23:50:35.725Z,9.32
2023-03-10T23:53:37.930Z,9.28
2023-03-10T23:56:40.227Z,9.23
2023-03-10T23:59:44.349Z,9.18
